Impacts TAF Board INFO
FOR SITUATIONAL AWARENESS. NOT TO BE USED FOR FLIGHT PLANNING PURPOSES.
IDs:

KATL - Atlanta/Hartsfield-J, GA, US

Issued at 0330 UTC 27 Jul 2017
Updated at 0504 UTC 27 Jul 2017
Potential Impact None Slight Moderate High
Time0452Z 27/06Z 27/07Z 27/08Z 27/09Z 27/10Z 27/11Z 27/12Z 27/13Z 27/14Z 27/15Z 27/16Z 27/17Z 27/18Z>>
Type OBS PRVL PRVL PRVL PRVL PRVL PRVL PRVL PRVL PRVL PRVL PRVL PRVL PRVL
VIS 10 >6 >6 >6 >6 >6 >6 >6 >6 >6 >6 >6 >6 >6
CIG -- -- -- -- -- -- -- -- -- -- -- -- -- --
Cover SCT FEW FEW FEW SCT SCT SCT SCT SCT SCT SCT SCT SCT SCT
FltCat VFR VFR VFR VFR VFR VFR VFR VFR VFR VFR VFR VFR VFR VFR
WX -- -- -- -- -- -- -- -- -- -- -- -- -- --
WDir 80 130 130 130 140 140 140 140 140 140 140 140 270 270
WSpd 6 4 4 4 4 4 4 4 4 5 5 5 5 5
WGst -- -- -- -- -- -- -- -- -- -- -- -- -- --

Raw TAF
KATL 270330Z 2704/2806 13004KT P6SM FEW250
  FM270900 14004KT P6SM SCT015
  FM271400 14005KT P6SM SCT035
  FM271700 27005KT P6SM SCT050 SCT250
  PROB30 2720/2723 P6SM TSRA BKN040CB
  FM280100 22004KT P6SM FEW080


Raw METAR
KATL 270452Z 08006KT 10SM FEW060 SCT080 SCT250 23/19 A3012 RMK AO2 SLP187 T02330189 403440233
KATL 270352Z 17003KT 10SM SCT070 SCT250 24/18 A3012 RMK AO2 SLP189 T02440183
KATL 270252Z 00000KT 10SM FEW250 25/18 A3011 RMK AO2 SLP184 T02500183 53009

METAR Board
Radar Display
Forecast Discussion

FOR SITUATIONAL AWARENESS. NOT TO BE USED FOR FLIGHT PLANNING PURPOSES.